createdAt,value
2019-03-11T00:00:06.230Z,0
2019-03-11T00:01:15.923Z,0
2019-03-11T00:02:25.885Z,0
2019-03-11T00:03:35.878Z,0
2019-03-11T00:04:45.818Z,0
2019-03-11T00:05:55.770Z,0
2019-03-11T00:07:05.708Z,0
2019-03-11T00:08:15.655Z,0
2019-03-11T00:09:25.593Z,0
2019-03-11T00:10:35.542Z,0
2019-03-11T00:11:45.241Z,0
2019-03-11T00:12:54.682Z,0
2019-03-11T00:14:04.631Z,0
2019-03-11T00:15:14.564Z,0
2019-03-11T00:16:24.252Z,0
2019-03-11T00:17:34.201Z,0
2019-03-11T00:18:44.142Z,0
2019-03-11T00:19:53.822Z,0
2019-03-11T00:21:03.503Z,0
2019-03-11T00:22:13.442Z,0
2019-03-11T00:23:23.143Z,0
2019-03-11T00:24:33.072Z,0
2019-03-11T00:25:42.753Z,0
2019-03-11T00:26:52.472Z,0
2019-03-11T00:28:02.186Z,0
2019-03-11T00:29:11.882Z,0
2019-03-11T00:30:21.828Z,0
2019-03-11T00:31:31.785Z,0
2019-03-11T00:32:41.222Z,0
2019-03-11T00:33:51.161Z,0
2019-03-11T00:35:01.107Z,0
2019-03-11T00:36:10.795Z,0
2019-03-11T00:37:20.483Z,0
2019-03-11T00:38:30.410Z,0
2019-03-11T00:39:40.093Z,0
2019-03-11T00:40:50.035Z,0
2019-03-11T00:41:59.987Z,0
2019-03-11T00:43:09.945Z,0
2019-03-11T00:44:19.378Z,0
2019-03-11T00:45:31.604Z,0
2019-03-11T00:46:41.523Z,0
2019-03-11T00:48:01.298Z,0
2019-03-11T00:49:11.697Z,0
2019-03-11T00:50:21.399Z,0
2019-03-11T00:51:31.095Z,0
2019-03-11T00:52:41.642Z,0
2019-03-11T00:53:51.135Z,0
2019-03-11T00:55:01.091Z,0
2019-03-11T00:56:10.789Z,0
2019-03-11T00:57:20.738Z,0
2019-03-11T00:58:30.690Z,0
2019-03-11T00:59:40.621Z,0
2019-03-11T01:00:50.577Z,0
2019-03-11T01:02:00.518Z,0
2019-03-11T01:03:10.203Z,0
2019-03-11T01:04:19.884Z,0
2019-03-11T01:05:29.328Z,0
2019-03-11T01:06:39.290Z,0
2019-03-11T01:07:49.005Z,0
2019-03-11T01:08:58.731Z,0
2019-03-11T01:10:08.517Z,0
2019-03-11T01:11:18.205Z,0
2019-03-11T01:12:27.902Z,0
2019-03-11T01:13:37.831Z,0
2019-03-11T01:14:47.783Z,0
2019-03-11T01:15:57.480Z,0
2019-03-11T01:17:07.492Z,0
2019-03-11T01:18:17.515Z,0
2019-03-11T01:19:27.459Z,0
2019-03-11T01:20:37.412Z,0
2019-03-11T01:21:46.857Z,0
2019-03-11T01:22:56.562Z,0
2019-03-11T01:24:06.501Z,0
2019-03-11T01:25:16.445Z,0
2019-03-11T01:26:26.393Z,0
2019-03-11T01:27:36.339Z,0
2019-03-11T01:28:46.274Z,0
2019-03-11T01:29:56.167Z,0
2019-03-11T01:31:05.841Z,0
2019-03-11T01:32:15.526Z,0
2019-03-11T01:33:25.482Z,0
2019-03-11T01:34:35.438Z,0
2019-03-11T01:35:45.378Z,0
2019-03-11T01:36:55.322Z,0
2019-03-11T01:38:05.316Z,0
2019-03-11T01:39:15.259Z,0
2019-03-11T01:40:25.202Z,0
2019-03-11T01:41:35.127Z,0
2019-03-11T01:42:44.818Z,0
2019-03-11T01:43:54.754Z,0
2019-03-11T01:45:04.699Z,0
2019-03-11T01:46:14.391Z,0
2019-03-11T01:47:24.081Z,0
2019-03-11T01:48:33.764Z,0
2019-03-11T01:49:43.709Z,0
2019-03-11T01:50:53.650Z,0
2019-03-11T01:52:02.844Z,0
2019-03-11T01:53:12.766Z,0
2019-03-11T01:54:22.702Z,0
2019-03-11T01:55:32.391Z,0
2019-03-11T01:56:42.080Z,0
2019-03-11T01:57:52.024Z,0
2019-03-11T01:59:01.957Z,0
2019-03-11T02:00:11.901Z,0
2019-03-11T02:01:21.599Z,0
2019-03-11T02:02:31.573Z,0
2019-03-11T02:03:41.511Z,0
2019-03-11T02:04:51.512Z,0
2019-03-11T02:06:01.199Z,0
2019-03-11T02:07:10.649Z,0
2019-03-11T02:08:20.341Z,0
2019-03-11T02:09:30.274Z,0
2019-03-11T02:10:39.962Z,0
2019-03-11T02:11:49.900Z,0
2019-03-11T02:12:59.619Z,0
2019-03-11T02:14:09.610Z,0
2019-03-11T02:15:19.546Z,0
2019-03-11T02:16:29.248Z,0
2019-03-11T02:17:38.692Z,0
2019-03-11T02:18:48.692Z,0
2019-03-11T02:19:58.373Z,0
2019-03-11T02:21:08.302Z,0
2019-03-11T02:22:17.992Z,0
2019-03-11T02:23:27.681Z,0
2019-03-11T02:24:37.358Z,0
2019-03-11T02:25:47.301Z,0
2019-03-11T02:26:57.228Z,0
2019-03-11T02:28:06.906Z,0
2019-03-11T02:29:16.619Z,0
2019-03-11T02:30:26.577Z,0
2019-03-11T02:31:36.281Z,0
2019-03-11T02:32:46.284Z,0
2019-03-11T02:33:56.267Z,0
2019-03-11T02:35:06.229Z,0
2019-03-11T02:36:16.226Z,0
2019-03-11T02:37:25.931Z,0
2019-03-11T02:38:35.886Z,0
2019-03-11T02:39:45.871Z,0
2019-03-11T02:40:55.577Z,0
2019-03-11T02:42:05.269Z,0
2019-03-11T02:43:14.958Z,0
2019-03-11T02:44:24.935Z,0
2019-03-11T02:45:34.896Z,0
2019-03-11T02:46:44.909Z,0
2019-03-11T02:47:54.878Z,0
2019-03-11T02:49:04.873Z,0
2019-03-11T02:50:14.597Z,0
2019-03-11T02:51:24.316Z,0
2019-03-11T02:52:34.287Z,0
2019-03-11T02:53:44.016Z,0
2019-03-11T02:54:53.977Z,0
2019-03-11T02:56:04.017Z,0
2019-03-11T02:57:13.989Z,0
2019-03-11T02:58:23.932Z,0
2019-03-11T02:59:34.995Z,0
2019-03-11T03:00:44.688Z,0
2019-03-11T03:01:54.641Z,0
2019-03-11T03:03:04.606Z,0
2019-03-11T03:04:14.312Z,0
2019-03-11T03:05:24.318Z,0
2019-03-11T03:06:34.311Z,0
2019-03-11T03:07:44.054Z,0
2019-03-11T03:08:53.744Z,0
2019-03-11T03:10:03.455Z,0
2019-03-11T03:11:12.699Z,0
2019-03-11T03:12:22.398Z,0
2019-03-11T03:13:31.845Z,0
2019-03-11T03:14:41.542Z,0
2019-03-11T03:15:51.023Z,0
2019-03-11T03:17:00.730Z,0
2019-03-11T03:18:10.466Z,0
2019-03-11T03:19:20.414Z,0
2019-03-11T03:20:30.118Z,0
2019-03-11T03:21:39.808Z,0
2019-03-11T03:22:49.300Z,0
2019-03-11T03:23:59.035Z,0
2019-03-11T03:25:08.988Z,0
2019-03-11T03:26:18.467Z,0
2019-03-11T03:27:28.169Z,0
2019-03-11T03:28:38.124Z,0
2019-03-11T03:29:48.074Z,0
2019-03-11T03:30:58.050Z,0
2019-03-11T03:32:07.812Z,0
2019-03-11T03:33:17.636Z,0
2019-03-11T03:34:27.602Z,0
2019-03-11T03:35:37.575Z,0
2019-03-11T03:36:47.536Z,0
2019-03-11T03:37:57.480Z,0
2019-03-11T03:39:07.437Z,0
2019-03-11T03:40:16.889Z,0
2019-03-11T03:41:26.700Z,0
2019-03-11T03:42:36.539Z,0
2019-03-11T03:43:45.998Z,0
2019-03-11T03:44:55.952Z,0
2019-03-11T03:46:20.345Z,0
2019-03-11T03:47:30.292Z,0
2019-03-11T03:48:40.827Z,0
2019-03-11T03:49:51.067Z,0
2019-03-11T03:51:01.010Z,0
2019-03-11T03:52:10.736Z,0
2019-03-11T03:53:20.200Z,0
2019-03-11T03:54:29.942Z,0
2019-03-11T03:55:39.911Z,0
2019-03-11T03:56:53.550Z,0
2019-03-11T03:58:03.700Z,0
2019-03-11T03:59:13.664Z,0
2019-03-11T04:00:23.353Z,0
2019-03-11T04:01:33.305Z,0
2019-03-11T04:02:43.338Z,0
2019-03-11T04:03:52.792Z,0
2019-03-11T04:05:02.876Z,0
2019-03-11T04:06:12.882Z,0
2019-03-11T04:07:22.856Z,0
2019-03-11T04:08:32.796Z,0
2019-03-11T04:09:42.764Z,0
2019-03-11T04:10:52.721Z,0
2019-03-11T04:12:02.710Z,0
2019-03-11T04:13:12.406Z,0
2019-03-11T04:14:22.103Z,0
2019-03-11T04:15:31.576Z,0
2019-03-11T04:16:41.530Z,0
2019-03-11T04:17:51.521Z,0
2019-03-11T04:19:01.493Z,0
2019-03-11T04:20:11.458Z,0
2019-03-11T04:21:21.167Z,0
2019-03-11T04:22:31.107Z,0
2019-03-11T04:23:40.809Z,0
2019-03-11T04:24:50.529Z,0
2019-03-11T04:26:00.250Z,0
2019-03-11T04:27:09.944Z,0
2019-03-11T04:28:19.638Z,0
2019-03-11T04:29:29.318Z,0
2019-03-11T04:30:39.291Z,0
2019-03-11T04:31:49.253Z,0
2019-03-11T04:32:59.206Z,0
2019-03-11T04:34:09.158Z,0
2019-03-11T04:35:18.679Z,0
2019-03-11T04:36:28.636Z,0
2019-03-11T04:37:38.583Z,0
2019-03-11T04:38:48.507Z,0
2019-03-11T04:39:58.385Z,0
2019-03-11T04:41:08.344Z,0
2019-03-11T04:42:18.450Z,0
2019-03-11T04:43:28.144Z,0
2019-03-11T04:44:37.836Z,0
2019-03-11T04:45:47.518Z,0
2019-03-11T04:46:57.214Z,0
2019-03-11T04:48:06.669Z,0
2019-03-11T04:49:16.646Z,0
2019-03-11T04:50:26.594Z,0
2019-03-11T04:51:36.289Z,0
2019-03-11T04:52:45.973Z,0
2019-03-11T04:53:55.671Z,0
2019-03-11T04:55:05.621Z,0
2019-03-11T04:56:15.570Z,0
2019-03-11T04:57:28.272Z,0
2019-03-11T04:58:38.228Z,0
2019-03-11T04:59:48.171Z,0
2019-03-11T05:00:57.867Z,0
2019-03-11T05:02:07.805Z,0
2019-03-11T05:03:17.758Z,0
2019-03-11T05:04:27.441Z,0
2019-03-11T05:05:37.127Z,0
2019-03-11T05:06:47.081Z,0
2019-03-11T05:07:56.786Z,0
2019-03-11T05:09:06.723Z,0
2019-03-11T05:10:18.649Z,0
2019-03-11T05:11:28.605Z,0
2019-03-11T05:12:38.578Z,0
2019-03-11T05:13:48.516Z,0
2019-03-11T05:14:58.196Z,0
2019-03-11T05:16:08.131Z,0
2019-03-11T05:17:18.069Z,0
2019-03-11T05:18:28.001Z,0
2019-03-11T05:19:37.722Z,0
2019-03-11T05:20:47.393Z,0
2019-03-11T05:21:57.073Z,0
2019-03-11T05:23:07.029Z,0
2019-03-11T05:24:16.463Z,0
2019-03-11T05:25:25.668Z,0
2019-03-11T05:26:35.605Z,0
2019-03-11T05:27:45.532Z,0
2019-03-11T05:28:56.441Z,0
2019-03-11T05:30:06.603Z,0
2019-03-11T05:31:16.523Z,0
2019-03-11T05:32:26.464Z,0
2019-03-11T05:33:35.651Z,0
2019-03-11T05:34:45.598Z,0
2019-03-11T05:35:55.547Z,0
2019-03-11T05:37:05.483Z,0
2019-03-11T05:38:15.444Z,0
2019-03-11T05:39:25.395Z,0
2019-03-11T05:40:35.342Z,0
2019-03-11T05:41:45.272Z,0
2019-03-11T05:42:54.976Z,5
2019-03-11T05:44:04.419Z,5
2019-03-11T05:45:14.419Z,5
2019-03-11T05:46:24.384Z,5
2019-03-11T05:47:34.352Z,5
2019-03-11T05:48:44.303Z,5
2019-03-11T05:49:53.983Z,10
2019-03-11T05:51:03.682Z,10
2019-03-11T05:52:13.638Z,10
2019-03-11T05:53:23.585Z,15
2019-03-11T05:54:33.269Z,15
2019-03-11T05:55:43.308Z,15
2019-03-11T05:56:53.256Z,15
2019-03-11T05:58:03.210Z,20
2019-03-11T05:59:13.152Z,15
2019-03-11T06:00:23.108Z,15
2019-03-11T06:01:33.073Z,15
2019-03-11T06:02:43.909Z,15
2019-03-11T06:03:53.609Z,20
2019-03-11T06:05:03.551Z,20
2019-03-11T06:06:13.480Z,20
2019-03-11T06:07:23.418Z,25
2019-03-11T06:08:33.354Z,30
2019-03-11T06:09:43.046Z,35
2019-03-11T06:10:52.738Z,35
2019-03-11T06:12:02.683Z,30
2019-03-11T06:13:12.381Z,30
2019-03-11T06:14:22.320Z,30
2019-03-11T06:15:32.289Z,35
2019-03-11T06:16:41.980Z,40
2019-03-11T06:17:52.275Z,40
2019-03-11T06:19:02.211Z,45
2019-03-11T06:20:11.919Z,50
2019-03-11T06:21:21.607Z,55
2019-03-11T06:22:31.544Z,55
2019-03-11T06:23:41.478Z,55
2019-03-11T06:24:51.173Z,60
2019-03-11T06:26:00.654Z,70
2019-03-11T06:27:10.377Z,75
2019-03-11T06:28:20.330Z,80
2019-03-11T06:29:39.392Z,80
2019-03-11T06:30:49.092Z,85
2019-03-11T06:31:59.063Z,90
2019-03-11T06:33:08.745Z,90
2019-03-11T06:34:18.435Z,95
2019-03-11T06:35:28.383Z,95
2019-03-11T06:36:37.815Z,95
2019-03-11T06:37:47.283Z,100
2019-03-11T06:39:07.449Z,100
2019-03-11T06:40:17.512Z,105
2019-03-11T06:41:27.451Z,105
2019-03-11T06:42:37.164Z,110
2019-03-11T06:43:47.195Z,110
2019-03-11T06:44:56.912Z,120
2019-03-11T06:46:06.854Z,120
2019-03-11T06:47:16.787Z,120
2019-03-11T06:48:26.488Z,125
2019-03-11T06:49:36.409Z,125
2019-03-11T06:50:46.124Z,130
2019-03-11T06:51:56.075Z,125
2019-03-11T06:53:05.771Z,125
2019-03-11T06:54:15.465Z,130
2019-03-11T06:55:25.154Z,130
2019-03-11T06:56:35.088Z,130
2019-03-11T06:57:44.804Z,140
2019-03-11T06:58:54.557Z,145
2019-03-11T07:00:03.493Z,140
2019-03-11T07:01:13.454Z,140
2019-03-11T07:02:23.172Z,140
2019-03-11T07:03:32.624Z,145
2019-03-11T07:04:42.331Z,145
2019-03-11T07:05:52.032Z,140
2019-03-11T07:07:02.234Z,140
2019-03-11T07:08:11.958Z,145
2019-03-11T07:09:22.248Z,145
2019-03-11T07:10:32.302Z,145
2019-03-11T07:11:42.255Z,145
2019-03-11T07:12:52.283Z,150
2019-03-11T07:14:02.239Z,155
2019-03-11T07:15:12.167Z,155
2019-03-11T07:16:22.112Z,155
2019-03-11T07:17:32.082Z,155
2019-03-11T07:18:42.094Z,155
2019-03-11T07:19:52.043Z,155
2019-03-11T07:21:01.975Z,160
2019-03-11T07:22:11.690Z,160
2019-03-11T07:23:21.379Z,165
2019-03-11T07:24:31.076Z,165
2019-03-11T07:25:40.771Z,165
2019-03-11T07:26:50.716Z,175
2019-03-11T07:28:00.671Z,185
2019-03-11T07:29:10.139Z,190
2019-03-11T07:30:20.109Z,195
2019-03-11T07:31:30.049Z,220
2019-03-11T07:32:39.508Z,230
2019-03-11T07:33:49.202Z,220
2019-03-11T07:35:10.082Z,185
2019-03-11T07:36:19.802Z,180
2019-03-11T07:37:30.370Z,175
2019-03-11T07:38:40.102Z,185
2019-03-11T07:39:50.064Z,185
2019-03-11T07:40:59.768Z,195
2019-03-11T07:42:09.742Z,205
2019-03-11T07:43:19.743Z,210
2019-03-11T07:44:29.732Z,220
2019-03-11T07:45:39.689Z,250
2019-03-11T07:46:50.543Z,250
2019-03-11T07:48:00.263Z,250
2019-03-11T07:49:10.197Z,290
2019-03-11T07:50:19.906Z,265
2019-03-11T07:51:29.858Z,285
2019-03-11T07:52:39.590Z,300
2019-03-11T07:53:49.554Z,300
2019-03-11T07:54:59.504Z,310
2019-03-11T07:56:09.444Z,315
2019-03-11T07:57:20.612Z,260
2019-03-11T07:58:30.548Z,250
2019-03-11T07:59:40.490Z,245
2019-03-11T08:01:00.532Z,190
2019-03-11T08:02:10.223Z,155
2019-03-11T08:03:19.926Z,125
2019-03-11T08:04:29.873Z,110
2019-03-11T08:05:39.833Z,90
2019-03-11T08:06:49.854Z,90
2019-03-11T08:08:00.212Z,105
2019-03-11T08:09:09.692Z,115
2019-03-11T08:10:19.394Z,125
2019-03-11T08:11:29.344Z,115
2019-03-11T08:12:39.462Z,110
2019-03-11T08:13:49.238Z,105
2019-03-11T08:14:58.684Z,125
2019-03-11T08:16:08.608Z,120
2019-03-11T08:17:18.857Z,120
2019-03-11T08:18:39.180Z,120
2019-03-11T08:19:49.134Z,120
2019-03-11T08:20:59.099Z,130
2019-03-11T08:22:09.085Z,140
2019-03-11T08:23:19.040Z,120
2019-03-11T08:24:29.014Z,105
2019-03-11T08:25:38.991Z,100
2019-03-11T08:26:48.931Z,105
2019-03-11T08:27:58.882Z,90
2019-03-11T08:29:08.585Z,90
2019-03-11T08:30:18.527Z,100
2019-03-11T08:31:28.033Z,105
2019-03-11T08:32:37.550Z,105
2019-03-11T08:33:47.058Z,95
2019-03-11T08:34:57.006Z,115
2019-03-11T08:36:06.276Z,110
2019-03-11T08:37:16.454Z,115
2019-03-11T08:38:26.405Z,110
2019-03-11T08:39:36.122Z,125
2019-03-11T08:40:47.864Z,125
2019-03-11T08:41:57.821Z,130
2019-03-11T08:43:07.798Z,130
2019-03-11T08:44:17.781Z,155
2019-03-11T08:45:27.738Z,135
2019-03-11T08:46:37.198Z,135
2019-03-11T08:47:47.142Z,125
2019-03-11T08:48:56.848Z,130
2019-03-11T08:50:06.891Z,120
2019-03-11T08:51:16.846Z,135
2019-03-11T08:52:26.823Z,160
2019-03-11T08:53:36.774Z,165
2019-03-11T08:54:46.774Z,180
2019-03-11T08:55:56.738Z,180
2019-03-11T08:57:06.208Z,165
2019-03-11T08:58:16.188Z,190
2019-03-11T08:59:26.256Z,220
2019-03-11T09:00:36.480Z,190
2019-03-11T09:01:46.409Z,180
2019-03-11T09:02:56.647Z,160
2019-03-11T09:04:06.606Z,155
2019-03-11T09:05:16.637Z,145
2019-03-11T09:06:26.634Z,155
2019-03-11T09:07:36.605Z,165
2019-03-11T09:08:46.576Z,180
2019-03-11T09:09:56.084Z,190
2019-03-11T09:11:05.527Z,185
2019-03-11T09:12:15.498Z,205
2019-03-11T09:13:25.448Z,235
2019-03-11T09:14:35.225Z,230
2019-03-11T09:15:45.212Z,200
2019-03-11T09:16:54.930Z,160
2019-03-11T09:18:04.946Z,150
2019-03-11T09:19:14.905Z,150
2019-03-11T09:20:24.882Z,130
2019-03-11T09:21:34.329Z,120
2019-03-11T09:22:44.269Z,120
2019-03-11T09:23:54.216Z,110
2019-03-11T09:25:04.192Z,105
2019-03-11T09:26:14.148Z,95
2019-03-11T09:27:23.852Z,70
2019-03-11T09:28:34.684Z,65
2019-03-11T09:29:44.933Z,80
2019-03-11T09:30:54.972Z,70
2019-03-11T09:32:04.954Z,80
2019-03-11T09:33:15.790Z,95
2019-03-11T09:34:25.739Z,85
2019-03-11T09:35:35.696Z,75
2019-03-11T09:36:45.671Z,85
2019-03-11T09:37:55.702Z,100
2019-03-11T09:39:05.154Z,115
2019-03-11T09:40:14.857Z,140
2019-03-11T09:41:24.804Z,135
2019-03-11T09:42:34.751Z,120
2019-03-11T09:43:44.804Z,135
2019-03-11T09:44:54.781Z,150
2019-03-11T09:46:04.241Z,150
2019-03-11T09:47:13.952Z,170
2019-03-11T09:48:23.698Z,210
2019-03-11T09:49:33.651Z,220
2019-03-11T09:50:43.390Z,205
2019-03-11T09:51:53.391Z,205
2019-03-11T09:53:03.366Z,180
2019-03-11T09:54:13.338Z,165
2019-03-11T09:55:23.059Z,175
2019-03-11T09:56:42.813Z,185
2019-03-11T09:57:53.147Z,175
2019-03-11T09:59:03.136Z,180
2019-03-11T10:00:13.853Z,180
2019-03-11T10:01:24.359Z,200
2019-03-11T10:02:34.088Z,225
2019-03-11T10:03:43.779Z,240
2019-03-11T10:04:53.732Z,255
2019-03-11T10:06:03.187Z,235
2019-03-11T10:07:13.172Z,250
2019-03-11T10:08:22.893Z,270
2019-03-11T10:09:32.891Z,325
2019-03-11T10:10:42.849Z,345
2019-03-11T10:11:52.835Z,305
2019-03-11T10:13:02.788Z,330
2019-03-11T10:14:12.759Z,385
2019-03-11T10:15:22.462Z,400
2019-03-11T10:16:32.278Z,370
2019-03-11T10:17:41.976Z,335
2019-03-11T10:18:52.854Z,290
2019-03-11T10:20:02.916Z,305
2019-03-11T10:21:12.921Z,365
2019-03-11T10:22:23.282Z,355
2019-03-11T10:23:41.273Z,335
2019-03-11T10:24:51.266Z,280
2019-03-11T10:26:00.997Z,230
2019-03-11T10:27:10.987Z,200
2019-03-11T10:28:20.691Z,190
2019-03-11T10:29:30.649Z,230
2019-03-11T10:30:40.636Z,195
2019-03-11T10:31:50.964Z,155
2019-03-11T10:33:00.666Z,120
2019-03-11T10:34:10.627Z,120
2019-03-11T10:35:40.422Z,155
2019-03-11T10:36:50.481Z,130
2019-03-11T10:37:59.969Z,105
2019-03-11T10:39:10.056Z,105
2019-03-11T10:40:20.216Z,100
2019-03-11T10:41:29.915Z,120
2019-03-11T10:42:39.629Z,180
2019-03-11T10:43:49.605Z,300
2019-03-11T10:44:59.556Z,395
2019-03-11T10:46:09.769Z,420
2019-03-11T10:47:19.214Z,435
2019-03-11T10:48:39.446Z,440
2019-03-11T10:49:49.169Z,445
2019-03-11T10:50:59.347Z,445
2019-03-11T10:52:13.153Z,520
2019-03-11T10:53:22.858Z,595
2019-03-11T10:54:32.868Z,520
2019-03-11T10:55:42.323Z,460
2019-03-11T10:56:52.277Z,560
2019-03-11T10:58:02.265Z,510
2019-03-11T10:59:11.986Z,660
2019-03-11T11:00:22.032Z,595
2019-03-11T11:01:31.990Z,555
2019-03-11T11:02:42.008Z,650
2019-03-11T11:03:51.466Z,680
2019-03-11T11:05:01.433Z,690
2019-03-11T11:06:10.900Z,735
2019-03-11T11:07:20.871Z,680
2019-03-11T11:08:30.844Z,670
2019-03-11T11:09:40.575Z,590
2019-03-11T11:10:50.554Z,665
2019-03-11T11:12:00.534Z,700
2019-03-11T11:13:10.308Z,600
2019-03-11T11:14:20.063Z,580
2019-03-11T11:15:29.974Z,505
2019-03-11T11:16:39.671Z,490
2019-03-11T11:17:49.394Z,420
2019-03-11T11:18:59.339Z,370
2019-03-11T11:20:13.146Z,350
2019-03-11T11:21:22.608Z,265
2019-03-11T11:22:32.594Z,215
2019-03-11T11:23:42.040Z,170
2019-03-11T11:24:51.780Z,160
2019-03-11T11:26:01.753Z,150
2019-03-11T11:27:11.506Z,135
2019-03-11T11:28:21.218Z,110
2019-03-11T11:29:30.935Z,105
2019-03-11T11:30:40.643Z,120
2019-03-11T11:31:50.352Z,145
2019-03-11T11:33:00.343Z,145
2019-03-11T11:34:10.056Z,135
2019-03-11T11:35:19.819Z,130
2019-03-11T11:36:29.773Z,140
2019-03-11T11:37:39.488Z,125
2019-03-11T11:38:49.202Z,125
2019-03-11T11:39:59.189Z,110
2019-03-11T11:41:08.388Z,140
2019-03-11T11:42:18.338Z,140
2019-03-11T11:43:28.069Z,100
2019-03-11T11:44:38.020Z,85
2019-03-11T11:45:47.977Z,75
2019-03-11T11:46:57.917Z,100
2019-03-11T11:48:10.741Z,120
2019-03-11T11:49:20.211Z,115
2019-03-11T11:50:30.213Z,115
2019-03-11T11:51:39.989Z,100
2019-03-11T11:52:50.013Z,75
2019-03-11T11:54:00.207Z,75
2019-03-11T11:55:09.918Z,135
2019-03-11T11:56:19.873Z,150
2019-03-11T11:57:29.625Z,155
2019-03-11T11:58:40.770Z,140
2019-03-11T12:00:00.916Z,130
2019-03-11T12:01:10.642Z,120
2019-03-11T12:02:20.333Z,120
2019-03-11T12:03:30.072Z,125
2019-03-11T12:04:40.042Z,125
2019-03-11T12:05:50.038Z,125
2019-03-11T12:07:00.013Z,130
2019-03-11T12:08:09.977Z,135
2019-03-11T12:09:19.933Z,140
2019-03-11T12:10:29.971Z,140
2019-03-11T12:11:39.935Z,150
2019-03-11T12:12:49.915Z,150
2019-03-11T12:13:59.365Z,155
2019-03-11T12:15:08.814Z,150
2019-03-11T12:16:18.569Z,145
2019-03-11T12:17:30.429Z,125
2019-03-11T12:18:40.442Z,90
2019-03-11T12:19:50.138Z,90
2019-03-11T12:21:00.091Z,115
2019-03-11T12:22:10.106Z,150
2019-03-11T12:23:20.062Z,170
2019-03-11T12:24:29.796Z,210
2019-03-11T12:25:39.517Z,220
2019-03-11T12:26:51.112Z,260
2019-03-11T12:28:05.508Z,280
2019-03-11T12:29:15.245Z,275
2019-03-11T12:30:25.202Z,260
2019-03-11T12:31:35.275Z,245
2019-03-11T12:32:44.716Z,240
2019-03-11T12:33:54.417Z,230
2019-03-11T12:35:04.361Z,230
2019-03-11T12:36:14.477Z,245
2019-03-11T12:37:24.226Z,255
2019-03-11T12:38:35.813Z,230
2019-03-11T12:39:45.779Z,215
2019-03-11T12:40:55.730Z,195
2019-03-11T12:42:05.705Z,190
2019-03-11T12:43:15.414Z,190
2019-03-11T12:44:25.359Z,195
2019-03-11T12:45:35.140Z,200
2019-03-11T12:46:44.887Z,220
2019-03-11T12:47:54.666Z,240
2019-03-11T12:49:04.622Z,240
2019-03-11T12:50:17.104Z,235
2019-03-11T12:51:27.054Z,240
2019-03-11T12:52:37.003Z,255
2019-03-11T12:53:46.963Z,285
2019-03-11T12:54:56.667Z,320
2019-03-11T12:56:06.392Z,390
2019-03-11T12:57:16.380Z,335
2019-03-11T12:58:26.192Z,365
2019-03-11T12:59:42.945Z,435
2019-03-11T13:00:52.697Z,435
2019-03-11T13:02:02.731Z,490
2019-03-11T13:03:12.688Z,360
2019-03-11T13:04:22.645Z,265
2019-03-11T13:05:32.642Z,225
2019-03-11T13:06:42.124Z,195
2019-03-11T13:07:52.070Z,170
2019-03-11T13:09:02.022Z,165
2019-03-11T13:10:11.476Z,170
2019-03-11T13:11:21.461Z,170
2019-03-11T13:12:31.202Z,190
2019-03-11T13:13:40.930Z,205
2019-03-11T13:14:50.984Z,200
2019-03-11T13:16:00.736Z,190
2019-03-11T13:17:10.689Z,190
2019-03-11T13:18:20.696Z,200
2019-03-11T13:19:30.388Z,200
2019-03-11T13:20:40.338Z,200
2019-03-11T13:21:50.080Z,190
2019-03-11T13:22:59.541Z,195
2019-03-11T13:24:09.015Z,200
2019-03-11T13:25:18.988Z,215
2019-03-11T13:26:28.682Z,235
2019-03-11T13:27:38.392Z,265
2019-03-11T13:28:48.101Z,285
2019-03-11T13:29:57.790Z,290
2019-03-11T13:31:07.510Z,280
2019-03-11T13:32:17.731Z,260
2019-03-11T13:33:27.230Z,260
2019-03-11T13:34:37.206Z,265
2019-03-11T13:35:46.902Z,280
2019-03-11T13:36:56.870Z,280
2019-03-11T13:38:06.328Z,250
2019-03-11T13:39:16.242Z,245
2019-03-11T13:40:26.223Z,220
2019-03-11T13:41:36.199Z,195
2019-03-11T13:42:45.666Z,170
2019-03-11T13:43:58.005Z,150
2019-03-11T13:45:07.722Z,145
2019-03-11T13:46:17.674Z,145
2019-03-11T13:47:27.357Z,135
2019-03-11T13:48:37.027Z,120
2019-03-11T13:49:46.469Z,120
2019-03-11T13:50:56.443Z,120
2019-03-11T13:52:06.394Z,115
2019-03-11T13:53:16.364Z,125
2019-03-11T13:54:26.343Z,125
2019-03-11T13:55:36.308Z,140
2019-03-11T13:56:46.001Z,160
2019-03-11T13:57:55.694Z,165
2019-03-11T13:59:05.662Z,160
2019-03-11T14:00:15.620Z,170
2019-03-11T14:01:26.248Z,180
2019-03-11T14:02:36.202Z,200
2019-03-11T14:03:46.266Z,235
2019-03-11T14:04:56.246Z,295
2019-03-11T14:06:05.942Z,370
2019-03-11T14:07:15.646Z,360
2019-03-11T14:08:25.336Z,380
2019-03-11T14:09:35.300Z,320
2019-03-11T14:10:45.248Z,245
2019-03-11T14:11:55.206Z,230
2019-03-11T14:13:05.208Z,240
2019-03-11T14:14:14.893Z,200
2019-03-11T14:15:24.903Z,160
2019-03-11T14:16:34.830Z,145
2019-03-11T14:17:44.780Z,125
2019-03-11T14:18:54.482Z,110
2019-03-11T14:20:04.425Z,110
2019-03-11T14:21:17.578Z,130
2019-03-11T14:22:34.790Z,140
2019-03-11T14:23:44.758Z,175
2019-03-11T14:24:54.700Z,300
2019-03-11T14:26:04.660Z,560
2019-03-11T14:27:14.118Z,640
2019-03-11T14:28:24.100Z,535
2019-03-11T14:29:33.574Z,430
2019-03-11T14:30:43.524Z,390
2019-03-11T14:31:53.309Z,395
2019-03-11T14:33:03.248Z,390
2019-03-11T14:34:13.210Z,330
2019-03-11T14:35:23.991Z,320
2019-03-11T14:36:33.948Z,360
2019-03-11T14:37:43.643Z,420
2019-03-11T14:38:53.106Z,500
2019-03-11T14:40:03.344Z,555
2019-03-11T14:41:13.083Z,545
2019-03-11T14:42:22.762Z,895
2019-03-11T14:43:33.313Z,1690
2019-03-11T14:44:42.745Z,1830
2019-03-11T14:45:52.684Z,1485
2019-03-11T14:47:02.632Z,880
2019-03-11T14:48:12.560Z,1080
2019-03-11T14:49:22.519Z,765
2019-03-11T14:50:32.487Z,675
2019-03-11T14:51:42.459Z,780
2019-03-11T14:52:52.402Z,1840
2019-03-11T14:54:02.290Z,2135
2019-03-11T14:55:12.238Z,2005
2019-03-11T14:56:21.954Z,2355
2019-03-11T14:57:31.409Z,2300
2019-03-11T14:58:41.142Z,2120
2019-03-11T14:59:51.567Z,2095
2019-03-11T15:01:01.554Z,1995
2019-03-11T15:02:11.496Z,1950
2019-03-11T15:03:21.189Z,1980
2019-03-11T15:04:30.902Z,1880
2019-03-11T15:05:41.073Z,2030
2019-03-11T15:06:51.031Z,2015
2019-03-11T15:08:00.976Z,1970
2019-03-11T15:09:10.934Z,2075
2019-03-11T15:10:20.672Z,2105
2019-03-11T15:11:30.622Z,2070
2019-03-11T15:12:40.309Z,2035
2019-03-11T15:13:50.046Z,1985
2019-03-11T15:14:59.749Z,1945
2019-03-11T15:16:09.709Z,1850
2019-03-11T15:17:19.403Z,1835
2019-03-11T15:18:29.370Z,535
2019-03-11T15:19:39.335Z,1715
2019-03-11T15:20:49.281Z,1710
2019-03-11T15:21:59.032Z,1790
2019-03-11T15:23:27.947Z,1660
2019-03-11T15:24:37.667Z,1575
2019-03-11T15:25:47.614Z,1560
2019-03-11T15:26:57.616Z,1515
2019-03-11T15:28:07.345Z,415
2019-03-11T15:29:17.329Z,415
2019-03-11T15:30:27.319Z,460
2019-03-11T15:31:37.262Z,1085
2019-03-11T15:32:46.728Z,445
2019-03-11T15:33:59.073Z,390
2019-03-11T15:35:09.038Z,1065
2019-03-11T15:36:19.015Z,475
2019-03-11T15:37:29.285Z,880
2019-03-11T15:38:39.243Z,1020
2019-03-11T15:39:48.944Z,385
2019-03-11T15:40:58.907Z,760
2019-03-11T15:42:08.861Z,470
2019-03-11T15:43:18.836Z,330
2019-03-11T15:44:30.015Z,310
2019-03-11T15:45:48.240Z,390
2019-03-11T15:46:59.067Z,295
2019-03-11T15:48:09.018Z,320
2019-03-11T15:49:19.060Z,360
2019-03-11T15:50:29.020Z,560
2019-03-11T15:51:46.217Z,480
2019-03-11T15:52:55.907Z,1450
2019-03-11T15:54:05.618Z,1405
2019-03-11T15:55:15.307Z,1010
2019-03-11T15:56:24.998Z,340
2019-03-11T15:57:45.774Z,305
2019-03-11T15:58:55.213Z,335
2019-03-11T16:00:05.178Z,360
2019-03-11T16:01:15.151Z,370
2019-03-11T16:02:25.107Z,970
2019-03-11T16:03:45.231Z,635
2019-03-11T16:04:54.949Z,700
2019-03-11T16:06:04.901Z,295
2019-03-11T16:07:14.597Z,720
2019-03-11T16:08:24.539Z,475
2019-03-11T16:09:34.520Z,495
2019-03-11T16:10:44.264Z,275
2019-03-11T16:11:54.241Z,200
2019-03-11T16:13:04.193Z,210
2019-03-11T16:14:13.944Z,200
2019-03-11T16:15:23.910Z,285
2019-03-11T16:16:34.848Z,235
2019-03-11T16:17:44.567Z,135
2019-03-11T16:18:54.304Z,120
2019-03-11T16:20:03.999Z,105
2019-03-11T16:21:13.952Z,95
2019-03-11T16:22:33.663Z,75
2019-03-11T16:23:43.638Z,65
2019-03-11T16:24:53.576Z,60
2019-03-11T16:26:03.286Z,55
2019-03-11T16:27:13.309Z,50
2019-03-11T16:28:23.280Z,45
2019-03-11T16:29:32.995Z,45
2019-03-11T16:30:42.945Z,45